Time;durP1;ratioP1;P1;durP2;ratioP2;P2;SDS_P1;SDS_P2;PMS_P1;PMS_P2;Temp;Humidity;BMP_temperature;BMP_pressure;BME280_temperature;BME280_humidity;BME280_pressure;Samples;Min_cycle;Max_cycle;Signal;HPM_P1;HPM_P2
2023/03/03 06:51:51;;;;;;;95.20;44.10;;;;;;;-2.15;94.41;98656.08;104717;1304;139001;-72
2023/03/03 06:55:37;;;;;;;95.20;43.80;;;;;;;-2.02;94.21;98650.51;103904;1310;22714;-71
2023/03/03 06:58:49;;;;;;;;;;;;;;;;;;;;;
2023/03/03 07:02:46;;;;;;;;;;;;;;;;;;;;;
2023/03/03 07:11:06;;;;;;;110.40;51.30;;;;;;;-1.49;93.22;98634.63;103063;1302;547742;-71
2023/03/03 07:22:29;;;;;;;;;;;;;;;;;;;;;
2023/03/03 07:34:47;;;;;;;106.00;47.80;;;;;;;-0.50;93.00;98617.71;104011;1306;138290;-69
2023/03/03 07:49:58;;;;;;;;;;;;;;;;;;;;;
2023/03/03 07:54:17;;;;;;;85.00;42.10;;;;;;;0.17;90.92;98619.58;107894;1289;23334;-69
2023/03/03 08:06:37;;;;;;;89.60;45.70;;;;;;;0.45;90.24;98612.17;106889;1285;23420;-68
2023/03/03 08:10:39;;;;;;;92.90;45.90;;;;;;;0.56;90.10;98601.38;105156;1287;139164;-67
2023/03/03 08:22:45;;;;;;;87.70;43.00;;;;;;;0.95;89.17;98617.14;103085;1315;545223;-68
2023/03/03 08:26:36;;;;;;;77.90;37.40;;;;;;;1.05;89.01;98627.91;104543;1306;22553;-69
2023/03/03 08:52:53;;;;;;;;;;;;;;;;;;;;;
2023/03/03 09:20:40;;;;;;;87.30;43.80;;;;;;;2.05;85.06;98628.25;103171;1308;547539;-70
2023/03/03 09:24:42;;;;;;;84.60;43.30;;;;;;;2.15;84.55;98622.77;105257;1298;22539;-70
2023/03/03 09:40:43;;;;;;;93.60;46.90;;;;;;;2.44;83.32;98618.85;103085;1304;545266;-71
2023/03/03 09:48:34;;;;;;;92.40;46.30;;;;;;;2.55;83.36;98616.46;105225;1298;22620;-71
2023/03/03 10:00:11;;;;;;;112.50;52.10;;;;;;;2.87;83.18;98622.80;105003;1297;137686;-71
2023/03/03 10:07:59;;;;;;;112.00;52.30;;;;;;;3.01;81.99;98613.55;104467;1312;22563;-70
2023/03/03 10:12:21;;;;;;;106.50;53.40;;;;;;;3.06;81.61;98619.36;104691;1310;137885;-70
2023/03/03 10:20:04;;;;;;;110.30;51.50;;;;;;;2.97;81.27;98641.28;104303;1311;22575;-70
2023/03/03 10:27:53;;;;;;;89.80;45.10;;;;;;;2.93;81.16;98644.14;104929;1317;22989;-71
2023/03/03 10:35:37;;;;;;;97.70;48.30;;;;;;;2.79;80.76;98643.91;103315;1298;137984;-67
2023/03/03 10:43:42;;;;;;;109.00;54.30;;;;;;;2.67;81.43;98639.10;103907;1311;23392;-70
2023/03/03 10:47:28;;;;;;;107.50;49.90;;;;;;;2.70;81.51;98635.86;104044;1312;137854;-69
2023/03/03 10:51:27;;;;;;;96.00;47.10;;;;;;;2.70;81.31;98641.79;106653;1319;22932;-70
2023/03/03 11:18:36;;;;;;;;;;;;;;;;;;;;;
2023/03/03 11:26:39;;;;;;;58.30;25.60;;;;;;;1.37;80.11;98667.63;106489;1317;137627;-69
2023/03/03 11:38:44;;;;;;;60.30;22.20;;;;;;;1.30;80.61;98660.98;106286;1317;137920;-70
2023/03/03 11:50:16;;;;;;;47.70;20.30;;;;;;;1.16;81.06;98657.92;106344;1313;137787;-70
2023/03/03 11:54:00;;;;;;;55.40;22.90;;;;;;;1.17;80.94;98654.95;106223;1304;23404;-70
2023/03/03 11:57:46;;;;;;;50.10;20.50;;;;;;;1.19;81.21;98654.19;106304;1317;22395;-70
2023/03/03 12:01:18;;;;;;;;;;;;;;;;;;;;;
2023/03/03 12:05:33;;;;;;;60.90;22.60;;;;;;;1.13;81.26;98657.21;106477;1297;22638;-70
2023/03/03 12:25:11;;;;;;;60.80;22.10;;;;;;;0.94;81.56;98655.57;106489;1299;138819;-69
2023/03/03 12:29:16;;;;;;;61.70;23.30;;;;;;;0.92;81.86;98656.23;106455;1314;23246;-70
2023/03/03 13:09:27;;;;;;;61.50;24.40;;;;;;;0.86;82.01;98613.72;100116;1306;27315;-69
2023/03/03 13:13:12;;;;;;;57.00;23.40;;;;;;;0.87;81.66;98613.16;103811;1312;138602;-69
2023/03/03 13:36:52;;;;;;;;;;;;;;;;;;;;;
2023/03/03 13:40:40;;;;;;;;;;;;;;;;;;;;;
2023/03/03 14:00:24;;;;;;;52.30;23.00;;;;;;;1.35;79.36;98608.55;104775;1300;22610;-68
2023/03/03 14:04:09;;;;;;;56.60;23.90;;;;;;;1.39;78.77;98618.02;104771;1305;22610;-68
2023/03/03 14:08:02;;;;;;;50.00;22.60;;;;;;;1.38;78.51;98627.48;107321;1281;137939;-69
2023/03/03 14:11:47;;;;;;;48.60;21.60;;;;;;;1.34;78.32;98620.35;102381;1279;22853;-68
2023/03/03 14:18:29;;;;;;;51.90;22.60;;;;;;;1.31;78.19;98615.31;108607;1263;137847;-69
2023/03/03 14:21:14;;;;;;;50.50;22.10;;;;;;;1.32;78.41;98613.27;106757;1275;24072;-70
2023/03/03 14:24:03;;;;;;;54.60;21.60;;;;;;;1.33;78.22;98609.23;107527;1283;24084;-69
2023/03/03 14:26:45;;;;;;;45.40;20.00;;;;;;;1.30;78.06;98606.38;107297;1283;23004;-70
2023/03/03 14:29:21;;;;;;;48.90;21.90;;;;;;;1.28;77.93;98605.59;107105;1271;23076;-70
2023/03/03 14:31:49;;;;;;;47.10;21.00;;;;;;;1.26;77.78;98613.09;107454;1281;138236;-69
2023/03/03 14:34:40;;;;;;;50.20;21.70;;;;;;;1.23;77.59;98613.31;107157;1281;22560;-70
2023/03/03 14:37:22;;;;;;;49.10;21.50;;;;;;;1.20;77.78;98613.07;106956;1281;137809;-70
2023/03/03 14:40:19;;;;;;;46.50;20.50;;;;;;;1.17;77.61;98610.32;107501;1269;22547;-70
2023/03/03 14:42:53;;;;;;;40.60;20.00;;;;;;;1.14;77.87;98614.90;107373;1277;137490;-70
2023/03/03 14:45:40;;;;;;;37.60;18.40;;;;;;;1.10;77.81;98606.89;107435;1283;22790;-70
2023/03/03 14:48:27;;;;;;;52.80;22.60;;;;;;;1.08;77.60;98607.71;107296;1284;137742;-70
2023/03/03 14:51:23;;;;;;;47.50;22.70;;;;;;;1.05;77.74;98608.81;107653;1270;24412;-70
2023/03/03 14:53:51;;;;;;;51.50;22.30;;;;;;;1.01;78.00;98605.73;107406;1275;22670;-71
2023/03/03 14:56:33;;;;;;;52.40;23.30;;;;;;;1.00;78.26;98599.56;106875;1283;137931;-69
2023/03/03 14:59:20;;;;;;;49.60;20.80;;;;;;;1.00;78.37;98602.98;106976;1268;22870;-70
2023/03/03 15:02:00;;;;;;;44.70;19.10;;;;;;;0.99;78.22;98601.81;107519;1274;138146;-70
2023/03/03 15:04:29;;;;;;;41.10;20.70;;;;;;;0.96;78.24;98601.24;106671;1283;22679;-70
2023/03/03 15:06:57;;;;;;;;;;;;;;;0.96;78.26;98608.65;107967;1283;138267;-70
2023/03/03 15:09:40;;;;;;;47.80;20.20;;;;;;;0.95;78.56;98605.30;107709;1283;22390;-71
2023/03/03 15:12:16;;;;;;;48.90;20.40;;;;;;;0.91;78.46;98608.95;106612;1281;138206;-70
2023/03/03 15:14:47;;;;;;;49.70;21.70;;;;;;;0.88;78.52;98605.39;107177;1283;22527;-72
2023/03/03 15:17:28;;;;;;;55.70;22.30;;;;;;;0.88;78.66;98607.16;107455;1275;24271;-70
2023/03/03 15:19:58;;;;;;;53.10;22.70;;;;;;;0.85;78.35;98607.39;106193;1281;137520;-70
2023/03/03 15:23:13;;;;;;;52.10;22.70;;;;;;;0.82;78.60;98606.44;106554;1287;22577;-70
2023/03/03 15:25:52;;;;;;;57.60;23.60;;;;;;;0.76;78.59;98610.70;105566;1279;137547;-70
2023/03/03 15:28:40;;;;;;;65.70;24.60;;;;;;;0.72;78.85;98609.59;105295;1283;23411;-70
2023/03/03 15:31:37;;;;;;;47.60;21.20;;;;;;;0.68;78.99;98606.50;105304;1289;137760;-69
2023/03/03 15:34:23;;;;;;;52.00;21.40;;;;;;;0.66;79.25;98601.23;104627;1301;22683;-70
2023/03/03 15:37:32;;;;;;;49.90;21.90;;;;;;;0.72;79.31;98597.76;105098;1298;137622;-70
2023/03/03 15:40:11;;;;;;;48.90;21.90;;;;;;;0.73;79.13;98599.71;105736;1295;26273;-70
2023/03/03 15:42:47;;;;;;;;;;;;;;;0.71;78.88;98594.28;105013;1302;137909;-71
2023/03/03 15:45:28;;;;;;;53.40;21.40;;;;;;;0.68;78.80;98593.84;105928;1301;24407;-70
2023/03/03 15:48:02;;;;;;;36.60;18.40;;;;;;;0.65;78.90;98595.94;104681;1303;22688;-70
2023/03/03 15:50:51;;;;;;;45.00;21.40;;;;;;;0.63;78.75;98603.45;104924;1296;25574;-70
2023/03/03 15:53:30;;;;;;;45.70;20.30;;;;;;;0.61;78.97;98602.86;105316;1285;23934;-71
2023/03/03 15:55:57;;;;;;;40.30;20.20;;;;;;;0.57;78.88;98606.34;104110;1302;137816;-71
2023/03/03 15:59:03;;;;;;;40.80;17.40;;;;;;;0.52;78.84;98610.62;104659;1302;22704;-70
2023/03/03 16:01:33;;;;;;;38.40;17.20;;;;;;;0.42;78.23;98615.69;104792;1280;137922;-70
2023/03/03 16:04:10;;;;;;;51.30;21.60;;;;;;;0.32;78.68;98613.45;105778;1295;24466;-72
2023/03/03 16:06:44;;;;;;;44.40;17.90;;;;;;;0.25;78.52;98614.31;105644;1292;137707;-71
2023/03/03 16:09:46;;;;;;;47.10;20.30;;;;;;;0.16;78.59;98616.16;106035;1295;25055;-71
2023/03/03 16:12:24;;;;;;;43.80;19.60;;;;;;;0.09;78.95;98619.23;106138;1274;137869;-71
2023/03/03 16:15:00;;;;;;;42.00;19.20;;;;;;;0.05;79.01;98619.23;105670;1287;23349;-70
2023/03/03 16:17:33;;;;;;;51.10;23.10;;;;;;;0.01;79.55;98622.19;105951;1283;22541;-71
2023/03/03 16:20:06;;;;;;;50.50;20.90;;;;;;;-0.02;79.62;98620.45;106295;1282;137983;-71
2023/03/03 16:22:48;;;;;;;52.40;22.00;;;;;;;-0.02;79.63;98614.77;106003;1290;22651;-70
2023/03/03 16:25:33;;;;;;;49.10;20.90;;;;;;;-0.02;79.43;98616.81;106534;1284;138085;-70
2023/03/03 16:28:15;;;;;;;41.00;18.20;;;;;;;-0.03;79.40;98616.55;106671;1287;23781;-70
2023/03/03 16:30:57;;;;;;;44.50;19.30;;;;;;;-0.06;79.10;98622.25;106074;1284;138759;-71
2023/03/03 16:33:30;;;;;;;39.70;17.30;;;;;;;-0.09;78.99;98626.64;106429;1272;22536;-71
2023/03/03 16:36:44;;;;;;;40.50;18.20;;;;;;;-0.13;79.16;98630.00;106383;1287;23870;-71
2023/03/03 16:39:19;;;;;;;48.30;19.40;;;;;;;-0.20;79.59;98631.75;107428;1284;22454;-72
2023/03/03 16:41:49;;;;;;;48.40;20.00;;;;;;;-0.24;79.64;98634.52;108470;1283;22428;-71
2023/03/03 16:44:29;;;;;;;39.80;18.40;;;;;;;-0.25;79.55;98639.84;106895;1271;138382;-71
2023/03/03 16:47:31;;;;;;;47.60;19.50;;;;;;;-0.25;79.68;98637.36;107397;1286;22625;-71
2023/03/03 16:49:58;;;;;;;39.40;18.80;;;;;;;-0.25;79.71;98640.34;107225;1275;138431;-71
2023/03/03 16:52:39;;;;;;;50.80;19.70;;;;;;;-0.25;79.35;98636.63;106883;1267;22590;-71
2023/03/03 16:55:18;;;;;;;37.30;17.40;;;;;;;-0.25;79.33;98640.41;106589;1283;137949;-71
2023/03/03 16:57:58;;;;;;;48.50;20.00;;;;;;;-0.26;79.45;98637.09;107716;1277;25298;-71
2023/03/03 17:00:34;;;;;;;47.10;19.20;;;;;;;-0.25;79.49;98641.14;106672;1282;138422;-71
2023/03/03 17:03:20;;;;;;;42.20;18.50;;;;;;;-0.25;79.48;98644.70;106452;1285;22548;-71
2023/03/03 17:06:06;;;;;;;41.70;18.50;;;;;;;-0.25;79.25;98644.33;107163;1280;22794;-71
2023/03/03 17:08:32;;;;;;;36.30;16.00;;;;;;;-0.25;79.09;98645.63;106009;1291;137895;-70
2023/03/03 17:11:12;;;;;;;48.80;18.80;;;;;;;-0.26;79.21;98648.13;105977;1290;22996;-71
2023/03/03 17:13:57;;;;;;;;;;;;;;;-0.26;79.40;98641.54;105976;1276;138588;-71
2023/03/03 17:16:57;;;;;;;43.00;19.80;;;;;;;-0.26;79.58;98637.59;108047;1283;22549;-71
2023/03/03 17:20:17;;;;;;;54.60;23.10;;;;;;;-0.24;79.54;98631.23;107996;1278;137966;-71
2023/03/03 17:22:50;;;;;;;54.20;21.00;;;;;;;-0.23;79.49;98631.29;106602;1288;24408;-71
2023/03/03 17:25:29;;;;;;;48.90;21.50;;;;;;;-0.23;79.55;98631.08;106647;1280;138344;-71
2023/03/03 17:27:59;;;;;;;62.50;25.70;;;;;;;-0.22;79.89;98630.19;106457;1281;22609;-71
2023/03/03 17:30:37;;;;;;;82.70;31.50;;;;;;;-0.20;80.01;98631.38;107821;1290;139711;-71
2023/03/03 17:33:17;;;;;;;67.40;28.80;;;;;;;-0.20;79.76;98633.69;106075;1288;23403;-71
2023/03/03 17:35:50;;;;;;;62.80;26.20;;;;;;;-0.18;79.70;98634.98;105925;1280;25267;-71
2023/03/03 17:38:26;;;;;;;77.30;32.20;;;;;;;-0.16;79.81;98638.20;105886;1280;137930;-71
2023/03/03 17:41:11;;;;;;;65.10;28.60;;;;;;;-0.16;79.90;98641.41;105880;1287;24077;-71
2023/03/03 17:43:52;;;;;;;61.90;27.80;;;;;;;-0.16;79.98;98639.74;106504;1268;138316;-71
2023/03/03 17:46:29;;;;;;;59.40;27.70;;;;;;;-0.17;79.94;98637.01;105831;1284;22535;-72
2023/03/03 17:49:17;;;;;;;58.50;26.20;;;;;;;-0.18;80.22;98628.88;105817;1274;137909;-71
2023/03/03 17:51:54;;;;;;;68.80;27.10;;;;;;;-0.19;80.02;98630.58;106478;1290;24543;-71
2023/03/03 17:54:39;;;;;;;58.70;26.10;;;;;;;-0.20;79.98;98633.52;105885;1271;138099;-71
2023/03/03 17:57:06;;;;;;;57.60;26.30;;;;;;;-0.20;80.36;98639.29;106378;1278;25304;-71
2023/03/03 18:00:08;;;;;;;56.90;25.00;;;;;;;-0.20;80.02;98640.39;106634;1278;22537;-71
2023/03/03 18:02:54;;;;;;;61.80;26.90;;;;;;;-0.21;80.02;98633.88;106573;1283;22683;-71
2023/03/03 18:05:54;;;;;;;58.70;26.90;;;;;;;-0.21;80.51;98633.00;107120;1267;23338;-71
2023/03/03 18:08:33;;;;;;;53.70;23.50;;;;;;;-0.21;80.46;98639.39;106974;1278;139460;-72
2023/03/03 18:11:29;;;;;;;62.00;27.60;;;;;;;-0.22;80.39;98639.32;106696;1278;22574;-71
2023/03/03 18:14:14;;;;;;;57.60;25.70;;;;;;;-0.23;80.44;98636.28;106309;1285;138045;-71
2023/03/03 18:17:00;;;;;;;55.50;24.90;;;;;;;-0.25;80.48;98635.39;108061;1282;22425;-71
2023/03/03 18:19:57;;;;;;;57.80;27.20;;;;;;;-0.25;80.68;98639.20;107159;1284;138325;-71
2023/03/03 18:22:32;;;;;;;61.10;27.60;;;;;;;-0.26;80.64;98638.84;106264;1281;24382;-71
2023/03/03 18:25:12;;;;;;;61.30;26.70;;;;;;;-0.24;80.62;98641.75;107680;1268;138795;-71
2023/03/03 18:27:41;;;;;;;57.10;24.60;;;;;;;-0.25;80.54;98645.02;106763;1285;22491;-71
2023/03/03 18:30:23;;;;;;;54.00;25.40;;;;;;;-0.25;80.49;98643.65;106142;1279;22658;-70
2023/03/03 18:32:57;;;;;;;56.90;27.20;;;;;;;-0.26;80.63;98644.95;106341;1284;22644;-71
2023/03/03 18:35:42;;;;;;;66.70;29.80;;;;;;;-0.26;80.81;98642.48;106405;1284;22540;-71
2023/03/03 18:38:15;;;;;;;56.90;27.20;;;;;;;-0.26;80.82;98645.29;106079;1276;138131;-70
2023/03/03 18:41:20;;;;;;;56.30;25.60;;;;;;;-0.27;80.67;98645.66;106230;1286;25470;-70
2023/03/03 18:44:37;;;;;;;57.60;25.80;;;;;;;-0.30;80.93;98640.35;106295;1287;138142;-71
2023/03/03 18:47:04;;;;;;;55.90;26.20;;;;;;;-0.32;81.11;98639.23;105190;1290;22615;-71
2023/03/03 18:49:47;;;;;;;51.10;22.00;;;;;;;-0.32;80.95;98634.43;108316;1292;139374;-71
2023/03/03 18:52:34;;;;;;;54.90;25.20;;;;;;;-0.35;80.93;98630.22;106436;1289;25418;-71
2023/03/03 18:55:22;;;;;;;54.40;25.20;;;;;;;-0.35;80.97;98630.15;104910;1298;138303;-71
2023/03/03 18:58:15;;;;;;;58.20;24.20;;;;;;;-0.36;81.20;98630.20;105329;1276;24091;-71
2023/03/03 19:00:54;;;;;;;64.70;27.40;;;;;;;-0.37;81.12;98630.69;105904;1293;138356;-71
2023/03/03 19:03:27;;;;;;;76.00;31.00;;;;;;;-0.38;81.18;98629.17;105228;1295;22672;-71
2023/03/03 19:05:57;;;;;;;70.70;30.20;;;;;;;-0.38;81.32;98626.16;105360;1281;24365;-71
2023/03/03 19:08:25;;;;;;;74.70;31.50;;;;;;;-0.40;81.31;98620.42;105057;1293;138646;-71
2023/03/03 19:11:01;;;;;;;62.80;28.10;;;;;;;-0.39;81.55;98622.37;106424;1286;22564;-71
2023/03/03 19:13:31;;;;;;;57.80;26.40;;;;;;;-0.41;81.51;98616.98;105244;1292;140036;-70
2023/03/03 19:16:19;;;;;;;57.90;26.10;;;;;;;-0.43;81.52;98619.38;105023;1277;22546;-71
2023/03/03 19:18:46;;;;;;;60.50;27.30;;;;;;;-0.45;81.71;98612.96;105029;1293;138904;-71
2023/03/03 19:21:21;;;;;;;73.80;31.70;;;;;;;-0.45;81.64;98609.31;105689;1284;24259;-71
2023/03/03 19:24:01;;;;;;;58.90;28.20;;;;;;;-0.46;81.94;98610.83;106125;1281;22586;-71
2023/03/03 19:26:43;;;;;;;72.20;32.10;;;;;;;-0.47;81.98;98614.47;108263;1284;138720;-71
2023/03/03 19:29:40;;;;;;;66.80;29.10;;;;;;;-0.47;81.93;98619.48;106364;1262;22651;-70
2023/03/03 19:32:29;;;;;;;64.90;29.00;;;;;;;-0.47;82.09;98618.79;106695;1285;138404;-71
2023/03/03 19:35:20;;;;;;;66.10;30.20;;;;;;;-0.47;82.12;98620.42;106515;1280;22672;-71
2023/03/03 19:37:59;;;;;;;67.80;31.10;;;;;;;-0.49;82.04;98620.93;106517;1271;138560;-70
2023/03/03 19:40:52;;;;;;;67.10;31.10;;;;;;;-0.50;82.23;98620.54;107053;1278;22548;-71
2023/03/03 19:43:38;;;;;;;59.60;26.40;;;;;;;-0.50;82.34;98621.26;106145;1283;138634;-71
2023/03/03 19:46:21;;;;;;;61.10;26.00;;;;;;;-0.51;82.56;98627.20;108038;1279;22542;-71
2023/03/03 19:49:03;;;;;;;60.90;23.90;;;;;;;-0.52;82.21;98624.30;106755;1268;139682;-72
2023/03/03 19:51:54;;;;;;;53.30;24.10;;;;;;;-0.54;82.35;98618.61;106877;1278;22537;-71
2023/03/03 19:54:44;;;;;;;61.00;25.30;;;;;;;-0.55;82.66;98615.02;106935;1278;139288;-71
2023/03/03 19:57:33;;;;;;;66.10;27.90;;;;;;;-0.59;82.54;98611.31;108688;1268;24289;-71
2023/03/03 20:00:29;;;;;;;50.20;22.40;;;;;;;-0.60;83.10;98611.38;107012;1277;22953;-71
2023/03/03 20:03:43;;;;;;;59.60;25.60;;;;;;;-0.60;82.93;98610.75;106416;1282;25230;-71
2023/03/03 20:06:28;;;;;;;59.00;25.60;;;;;;;-0.60;83.25;98608.65;106509;1271;25246;-71
2023/03/03 20:09:03;;;;;;;66.60;28.00;;;;;;;-0.60;83.47;98607.51;106051;1290;24270;-71
2023/03/03 20:11:51;;;;;;;67.20;26.10;;;;;;;-0.60;83.66;98606.73;106912;1291;23453;-71
2023/03/03 20:14:39;;;;;;;72.40;31.00;;;;;;;-0.60;83.51;98607.50;106973;1284;138076;-72
2023/03/03 20:17:31;;;;;;;74.10;30.50;;;;;;;-0.59;83.15;98607.44;108600;1286;23240;-72
2023/03/03 20:20:20;;;;;;;54.00;24.80;;;;;;;-0.59;83.47;98604.06;107699;1284;138740;-71
2023/03/03 20:23:15;;;;;;;57.50;25.90;;;;;;;-0.60;83.44;98604.83;106710;1284;22545;-71
2023/03/03 20:25:47;;;;;;;55.80;25.10;;;;;;;-0.61;83.70;98599.45;106141;1284;139037;-72
2023/03/03 20:28:35;;;;;;;63.90;25.40;;;;;;;-0.62;83.83;98607.94;108464;1276;22526;-72
2023/03/03 20:31:17;;;;;;;58.80;24.10;;;;;;;-0.62;83.90;98607.40;107607;1292;138303;-71
2023/03/03 20:33:51;;;;;;;47.80;20.50;;;;;;;-0.62;84.07;98605.09;107937;1286;22474;-71
2023/03/03 20:36:41;;;;;;;55.60;23.10;;;;;;;-0.63;84.36;98602.29;106839;1285;23178;-72
2023/03/03 20:39:19;;;;;;;57.50;24.20;;;;;;;-0.63;84.46;98599.69;108164;1274;23534;-72
2023/03/03 20:42:22;;;;;;;48.40;22.00;;;;;;;-0.63;84.53;98596.84;107634;1282;23251;-71
2023/03/03 20:45:28;;;;;;;60.70;24.60;;;;;;;-0.63;84.56;98594.70;107149;1268;139307;-71
2023/03/03 20:48:30;;;;;;;59.30;23.10;;;;;;;-0.63;84.46;98597.02;106754;1281;24029;-70
2023/03/03 20:51:13;;;;;;;56.30;21.90;;;;;;;-0.65;85.00;98596.16;106328;1279;23390;-72
2023/03/03 20:54:00;;;;;;;53.40;21.30;;;;;;;-0.67;84.94;98602.30;106701;1282;22552;-71
2023/03/03 20:56:48;;;;;;;60.60;23.50;;;;;;;-0.70;85.22;98605.55;106420;1282;138172;-72
2023/03/03 20:59:20;;;;;;;57.90;21.60;;;;;;;-0.71;85.82;98609.66;107366;1267;22311;-73
2023/03/03 21:01:52;;;;;;;57.10;22.10;;;;;;;-0.72;85.46;98604.05;107131;1284;138407;-71
2023/03/03 21:04:25;;;;;;;58.80;22.10;;;;;;;-0.75;85.68;98596.48;108889;1286;22682;-72
2023/03/03 21:07:00;;;;;;;53.70;21.20;;;;;;;-0.74;85.54;98597.86;107489;1283;139346;-72
2023/03/03 21:09:34;;;;;;;59.80;24.30;;;;;;;-0.75;86.04;98597.63;108086;1266;22464;-72
2023/03/03 21:12:25;;;;;;;64.80;25.60;;;;;;;-0.75;86.16;98598.00;107793;1285;23214;-72
2023/03/03 21:15:20;;;;;;;65.50;24.60;;;;;;;-0.76;85.90;98595.23;107977;1282;139059;-71
2023/03/03 21:17:47;;;;;;;57.80;23.30;;;;;;;-0.77;86.26;98589.08;106943;1278;23212;-72
2023/03/03 21:20:23;;;;;;;56.00;23.30;;;;;;;-0.78;86.63;98581.13;106557;1271;138631;-72
2023/03/03 21:22:51;;;;;;;56.40;24.30;;;;;;;-0.79;86.53;98577.45;106331;1283;23370;-71
2023/03/03 21:25:43;;;;;;;56.10;21.90;;;;;;;-0.79;86.52;98577.81;107086;1283;138372;-72
2023/03/03 21:28:14;;;;;;;62.90;24.20;;;;;;;-0.79;86.75;98575.02;107220;1281;23442;-72
2023/03/03 21:31:16;;;;;;;57.90;23.30;;;;;;;-0.80;86.81;98575.11;106669;1279;138228;-72
2023/03/03 21:33:57;;;;;;;55.20;21.70;;;;;;;-0.81;86.55;98573.14;106622;1280;22543;-72
2023/03/03 21:36:31;;;;;;;59.40;23.10;;;;;;;-0.82;86.60;98568.27;107266;1280;22595;-71
2023/03/03 21:39:00;;;;;;;62.10;23.40;;;;;;;-0.84;86.56;98560.26;108118;1282;22531;-72
2023/03/03 21:41:51;;;;;;;57.10;22.90;;;;;;;-0.85;86.94;98561.98;106519;1283;22605;-72
2023/03/03 21:44:31;;;;;;;64.50;25.00;;;;;;;-0.86;87.14;98554.98;107790;1275;138286;-72
2023/03/03 21:46:59;;;;;;;61.80;23.40;;;;;;;-0.86;87.03;98551.73;107237;1283;23326;-72
2023/03/03 21:49:27;;;;;;;63.60;23.80;;;;;;;-0.87;87.01;98548.79;106783;1284;138030;-72
2023/03/03 21:51:55;;;;;;;60.10;24.10;;;;;;;-0.88;86.89;98550.36;107528;1270;25528;-72
2023/03/03 21:54:23;;;;;;;63.60;23.30;;;;;;;-0.89;87.35;98546.02;107190;1286;25659;-72
2023/03/03 21:56:51;;;;;;;69.90;26.00;;;;;;;-0.90;87.08;98542.27;106451;1280;137880;-72
2023/03/03 21:59:19;;;;;;;71.00;25.60;;;;;;;-0.92;87.64;98548.48;107622;1279;25244;-72
2023/03/03 22:01:46;;;;;;;68.60;26.60;;;;;;;-0.93;87.62;98548.27;108161;1269;138787;-72
2023/03/03 22:04:13;;;;;;;66.20;24.60;;;;;;;-0.93;87.60;98550.20;107596;1283;23116;-71
2023/03/03 22:06:41;;;;;;;66.10;24.50;;;;;;;-0.95;87.57;98540.65;106956;1283;138263;-72
2023/03/03 22:09:08;;;;;;;74.80;27.00;;;;;;;-0.95;87.69;98535.61;106955;1286;22559;-71
2023/03/03 22:11:35;;;;;;;72.00;26.50;;;;;;;-0.95;87.81;98531.20;107898;1267;23346;-72
2023/03/03 22:14:03;;;;;;;77.20;28.80;;;;;;;-0.97;87.85;98528.45;107451;1278;140955;-72
2023/03/03 22:16:30;;;;;;;76.30;28.50;;;;;;;-0.95;88.06;98530.79;107183;1264;23395;-72
2023/03/03 22:18:57;;;;;;;73.60;26.70;;;;;;;-0.93;88.05;98527.65;106310;1283;138195;-72
2023/03/03 22:21:24;;;;;;;66.70;26.90;;;;;;;-0.95;88.21;98518.66;106355;1269;24361;-72
2023/03/03 22:23:52;;;;;;;74.90;27.00;;;;;;;-0.98;88.35;98515.20;105907;1287;24530;-71
2023/03/03 22:26:20;;;;;;;67.90;24.00;;;;;;;-0.99;88.13;98512.15;106021;1278;138034;-72
2023/03/03 22:28:49;;;;;;;72.40;26.20;;;;;;;-1.00;88.36;98516.39;106487;1284;22537;-72
2023/03/03 22:31:17;;;;;;;66.20;23.90;;;;;;;-1.02;88.32;98512.45;106538;1267;138638;-71
2023/03/03 22:33:46;;;;;;;71.10;28.10;;;;;;;-1.01;88.62;98514.36;106678;1286;23917;-72
